Time;durP1;ratioP1;P1;durP2;ratioP2;P2;SDS_P1;SDS_P2;PMS_P1;PMS_P2;Temp;Humidity;BMP_temperature;BMP_pressure;BME280_temperature;BME280_humidity;BME280_pressure;Samples;Min_cycle;Max_cycle;Signal;HPM_P1;HPM_P2
2022/05/10 00:00:47;;;;;;;6.05;3.30;;;27.80;99.90;;;;;;4148641;28;20058;-65
2022/05/10 00:02:56;;;;;;;7.10;3.00;;;27.80;99.90;;;;;;4190802;28;20040;-65
2022/05/10 00:05:01;;;;;;;5.35;2.60;;;27.80;99.90;;;;;;4190158;28;20175;-66
2022/05/10 00:07:06;;;;;;;3.72;2.90;;;27.80;99.90;;;;;;4189751;28;20056;-66
2022/05/10 00:09:12;;;;;;;5.80;2.60;;;27.80;99.90;;;;;;4191440;28;20127;-67
2022/05/10 00:11:18;;;;;;;3.08;2.20;;;27.90;99.90;;;;;;4192271;28;20050;-67
2022/05/10 00:13:23;;;;;;;4.03;2.58;;;27.90;99.90;;;;;;4190858;28;20079;-67
2022/05/10 00:15:28;;;;;;;4.03;2.65;;;27.90;99.90;;;;;;4188872;28;20140;-67
2022/05/10 00:17:38;;;;;;;5.65;2.55;;;27.90;99.90;;;;;;4189811;28;20055;-68
2022/05/10 00:19:44;;;;;;;4.38;2.45;;;27.90;99.90;;;;;;4190810;28;20175;-68
2022/05/10 00:21:52;;;;;;;6.68;2.83;;;27.90;99.90;;;;;;4172705;28;20037;-68
2022/05/10 00:23:59;;;;;;;5.10;2.78;;;27.90;99.90;;;;;;4191734;28;20582;-68
2022/05/10 00:26:06;;;;;;;4.78;2.60;;;27.80;99.90;;;;;;4191684;28;20067;-67
2022/05/10 00:28:11;;;;;;;5.22;2.47;;;27.90;99.90;;;;;;4191857;28;20037;-67
2022/05/10 00:30:17;;;;;;;4.85;2.40;;;27.90;99.90;;;;;;4192309;28;20113;-68
2022/05/10 00:32:28;;;;;;;5.32;2.45;;;27.90;99.90;;;;;;4191962;28;20075;-67
2022/05/10 00:34:35;;;;;;;4.50;2.50;;;28.00;99.90;;;;;;4191870;28;20045;-69
2022/05/10 00:36:41;;;;;;;5.25;2.88;;;28.00;99.90;;;;;;4188425;28;20403;-67
2022/05/10 00:38:46;;;;;;;3.53;2.15;;;28.10;99.90;;;;;;4191986;28;20059;-67
2022/05/10 00:40:51;;;;;;;7.20;2.33;;;28.20;99.90;;;;;;4192788;28;20049;-65
2022/05/10 00:43:09;;;;;;;4.10;2.47;;;28.20;99.90;;;;;;4140802;28;20416;-65
2022/05/10 00:45:18;;;;;;;3.83;2.08;;;28.20;99.90;;;;;;4194037;28;20128;-67
2022/05/10 00:47:38;;;;;;;3.63;2.20;;;28.30;99.90;;;;;;4157400;28;20045;-66
2022/05/10 00:50:05;;;;;;;3.80;1.92;;;28.30;99.90;;;;;;4187629;28;20817;-66
2022/05/10 00:52:27;;;;;;;4.63;2.20;;;28.40;99.90;;;;;;4196169;28;20136;-67
2022/05/10 00:55:05;;;;;;;4.75;2.17;;;28.40;99.90;;;;;;4195231;28;20054;-67
2022/05/10 00:57:31;;;;;;;3.50;2.47;;;28.40;99.90;;;;;;4190450;28;20083;-66
2022/05/10 01:00:01;;;;;;;4.05;2.50;;;28.40;99.90;;;;;;4195389;28;20037;-66
2022/05/10 01:02:11;;;;;;;3.10;2.10;;;28.40;99.90;;;;;;4188973;28;20098;-66
2022/05/10 01:04:38;;;;;;;4.85;2.47;;;28.50;99.90;;;;;;4195340;28;20051;-66
2022/05/10 01:07:07;;;;;;;4.05;2.25;;;28.40;99.90;;;;;;4195856;28;20079;-67
2022/05/10 01:09:17;;;;;;;4.50;2.17;;;28.50;99.90;;;;;;4188680;28;20057;-66
2022/05/10 01:12:00;;;;;;;3.05;2.70;;;28.50;99.90;;;;;;4195605;28;20407;-66
2022/05/10 01:14:15;;;;;;;4.28;2.50;;;28.50;99.90;;;;;;4193972;28;20080;-66
2022/05/10 01:16:20;;;;;;;4.65;2.72;;;28.60;99.90;;;;;;4194102;28;20425;-67
2022/05/10 01:18:25;;;;;;;4.78;2.63;;;28.60;99.90;;;;;;4195202;28;20094;-67
2022/05/10 01:20:37;;;;;;;5.75;2.53;;;28.60;99.90;;;;;;4194482;28;20049;-67
2022/05/10 01:23:06;;;;;;;4.65;2.50;;;28.70;99.90;;;;;;4194665;28;20086;-67
2022/05/10 01:25:44;;;;;;;8.77;2.70;;;28.70;99.90;;;;;;4195740;28;20098;-67
2022/05/10 01:28:19;;;;;;;5.90;3.78;;;28.70;99.90;;;;;;4191395;28;20049;-67
2022/05/10 01:30:25;;;;;;;5.03;2.63;;;28.70;99.90;;;;;;4194958;28;20055;-66
2022/05/10 01:35:09;;;;;;;5.82;2.80;;;28.70;99.90;;;;;;4194976;28;20052;-67
2022/05/10 01:37:16;;;;;;;3.83;2.10;;;28.80;99.90;;;;;;4193324;28;20056;-67
2022/05/10 01:39:33;;;;;;;4.63;2.63;;;28.80;99.90;;;;;;4195098;28;20050;-67
2022/05/10 01:41:54;;;;;;;4.00;2.92;;;28.80;99.90;;;;;;4190284;28;20045;-67
2022/05/10 01:44:13;;;;;;;5.50;2.92;;;28.90;99.90;;;;;;4194699;28;20041;-67
2022/05/10 01:46:20;;;;;;;4.60;2.80;;;28.90;99.90;;;;;;4193911;28;20463;-67
2022/05/10 01:48:29;;;;;;;4.10;2.53;;;29.00;99.90;;;;;;4172601;28;20804;-67
2022/05/10 01:50:59;;;;;;;5.15;3.10;;;29.00;99.90;;;;;;4193293;28;20110;-67
2022/05/10 01:53:15;;;;;;;3.10;2.65;;;29.00;99.90;;;;;;4193037;28;20082;-67
2022/05/10 01:55:38;;;;;;;4.47;3.10;;;29.00;99.90;;;;;;4193250;28;20131;-67
2022/05/10 01:57:49;;;;;;;4.50;2.75;;;29.10;99.90;;;;;;4192756;28;20055;-67
2022/05/10 01:59:57;;;;;;;4.60;2.70;;;29.10;99.90;;;;;;4190422;28;20056;-68
2022/05/10 02:02:03;;;;;;;5.00;2.80;;;29.20;99.90;;;;;;4192285;28;20045;-68
2022/05/10 02:04:11;;;;;;;4.22;2.70;;;29.20;99.90;;;;;;4190573;28;20609;-68
2022/05/10 02:06:55;;;;;;;3.45;2.17;;;29.20;99.90;;;;;;4197707;28;20048;-67
2022/05/10 02:09:31;;;;;;;4.80;2.00;;;29.30;99.90;;;;;;4197657;28;20071;-68
2022/05/10 02:11:39;;;;;;;3.95;2.55;;;29.40;99.90;;;;;;4194128;28;20558;-68
2022/05/10 02:14:16;;;;;;;4.47;2.72;;;29.40;99.90;;;;;;4196643;28;20398;-67
2022/05/10 02:16:27;;;;;;;3.38;2.58;;;29.50;99.90;;;;;;4163904;28;20124;-68
2022/05/10 02:18:42;;;;;;;4.82;2.55;;;29.60;99.90;;;;;;4161655;28;20053;-68
2022/05/10 02:21:08;;;;;;;4.22;2.15;;;29.70;99.90;;;;;;4164099;28;20095;-68
2022/05/10 02:23:28;;;;;;;3.72;1.90;;;29.70;99.90;;;;;;4161350;28;20045;-68
2022/05/10 02:25:34;;;;;;;2.70;2.00;;;29.80;99.90;;;;;;4163061;28;20594;-67
2022/05/10 02:27:42;;;;;;;3.55;1.80;;;29.80;99.90;;;;;;4163945;28;20049;-67
2022/05/10 02:29:53;;;;;;;2.67;1.70;;;29.80;99.90;;;;;;4163429;28;20072;-68
2022/05/10 02:34:34;;;;;;;6.35;1.70;;;29.90;99.70;;;;;;4163805;28;20531;-68
2022/05/10 02:36:40;;;;;;;1.67;1.40;;;29.90;99.70;;;;;;4163798;28;20076;-68
2022/05/10 02:38:47;;;;;;;3.33;1.83;;;29.90;99.70;;;;;;4163168;28;20428;-67
2022/05/10 02:40:52;;;;;;;4.07;1.50;;;30.00;99.80;;;;;;4163970;28;20056;-68
2022/05/10 02:43:00;;;;;;;3.72;1.60;;;30.00;99.90;;;;;;4164208;28;20069;-69
2022/05/10 02:45:06;;;;;;;1.92;1.42;;;29.90;99.90;;;;;;4183306;28;20471;-68
2022/05/10 02:47:12;;;;;;;4.80;1.70;;;30.00;99.70;;;;;;4163994;28;20478;-68
2022/05/10 02:49:19;;;;;;;4.20;1.58;;;30.00;99.50;;;;;;4164027;28;20045;-68
2022/05/10 02:51:24;;;;;;;2.22;1.60;;;30.10;99.60;;;;;;4163850;28;20513;-67
2022/05/10 02:53:28;;;;;;;3.00;1.75;;;30.10;99.20;;;;;;4164118;28;20034;-67
2022/05/10 02:55:47;;;;;;;2.75;1.73;;;30.10;99.40;;;;;;4168582;28;20053;-67
2022/05/10 02:57:53;;;;;;;5.22;1.70;;;30.20;99.50;;;;;;4163999;28;20037;-67
2022/05/10 02:59:59;;;;;;;3.55;1.90;;;30.20;99.70;;;;;;4162517;28;20045;-67
2022/05/10 03:02:13;;;;;;;2.78;1.50;;;30.30;99.50;;;;;;4163766;28;20107;-67
2022/05/10 03:04:17;;;;;;;2.45;1.58;;;30.40;99.60;;;;;;4162503;28;20038;-68
2022/05/10 03:06:24;;;;;;;2.65;1.83;;;30.40;99.50;;;;;;4163385;28;20523;-68
2022/05/10 03:08:30;;;;;;;2.35;1.80;;;30.40;99.20;;;;;;4163478;28;20044;-68
2022/05/10 03:10:34;;;;;;;2.90;2.00;;;30.40;98.90;;;;;;4162380;28;20045;-68
2022/05/10 03:12:39;;;;;;;1.85;1.65;;;30.50;98.70;;;;;;4161693;28;20073;-68
2022/05/10 03:14:48;;;;;;;2.75;1.65;;;30.50;98.90;;;;;;4167860;28;20117;-67
2022/05/10 03:16:52;;;;;;;3.33;1.75;;;30.50;99.20;;;;;;4195308;28;20576;-67
2022/05/10 03:18:57;;;;;;;6.18;1.95;;;30.50;99.20;;;;;;4196494;28;20101;-67
2022/05/10 03:21:04;;;;;;;6.35;2.20;;;30.50;99.30;;;;;;4195806;28;20051;-67
2022/05/10 03:23:09;;;;;;;5.72;2.08;;;30.60;99.00;;;;;;4196544;28;20044;-67
2022/05/10 03:25:13;;;;;;;3.33;1.48;;;30.60;98.80;;;;;;4195436;28;20394;-67
2022/05/10 03:27:18;;;;;;;2.90;1.67;;;30.60;98.70;;;;;;4194684;28;20050;-66
2022/05/10 03:29:25;;;;;;;3.08;1.80;;;30.60;98.80;;;;;;4196496;28;20060;-66
2022/05/10 03:31:31;;;;;;;2.95;1.98;;;30.60;98.80;;;;;;4195454;28;20135;-68
2022/05/10 03:33:39;;;;;;;4.97;2.22;;;30.70;98.80;;;;;;4195883;28;20052;-66
2022/05/10 03:35:45;;;;;;;3.60;2.15;;;30.70;98.60;;;;;;4193736;28;20132;-67
2022/05/10 03:37:51;;;;;;;3.67;2.20;;;30.80;98.60;;;;;;4195858;28;20036;-67
2022/05/10 03:39:59;;;;;;;4.30;2.45;;;31.00;98.70;;;;;;4195166;28;20094;-67
2022/05/10 03:42:04;;;;;;;5.03;2.17;;;31.00;98.50;;;;;;4195178;28;20046;-67
2022/05/10 03:44:09;;;;;;;3.10;1.90;;;31.10;99.00;;;;;;4196087;28;20032;-67
2022/05/10 03:46:15;;;;;;;2.65;2.13;;;31.10;98.20;;;;;;4160553;28;20049;-67
2022/05/10 03:48:21;;;;;;;3.25;2.40;;;31.20;98.50;;;;;;4195792;28;20473;-67
2022/05/10 03:50:26;;;;;;;3.53;1.92;;;31.30;98.60;;;;;;4195458;28;20060;-67
2022/05/10 03:52:35;;;;;;;2.40;2.13;;;31.50;98.30;;;;;;4196259;28;20442;-66
2022/05/10 03:54:40;;;;;;;3.70;2.70;;;31.60;98.00;;;;;;4195986;28;20048;-67
2022/05/10 03:56:45;;;;;;;5.22;2.60;;;31.60;97.90;;;;;;4196046;28;20052;-67
2022/05/10 03:58:55;;;;;;;3.42;2.17;;;31.60;98.00;;;;;;4195331;28;20044;-67
2022/05/10 04:01:00;;;;;;;4.28;2.53;;;31.50;98.00;;;;;;4195389;28;20094;-67
2022/05/10 04:03:05;;;;;;;3.63;2.53;;;31.50;98.20;;;;;;4195231;28;20037;-67
2022/05/10 04:05:14;;;;;;;3.00;2.50;;;31.60;97.80;;;;;;4196019;28;20123;-67
2022/05/10 04:07:19;;;;;;;4.07;2.67;;;31.70;97.60;;;;;;4195729;28;20048;-67
2022/05/10 04:09:24;;;;;;;5.07;2.78;;;31.60;97.70;;;;;;4195187;28;20039;-67
2022/05/10 04:11:33;;;;;;;4.80;2.40;;;31.50;97.70;;;;;;4193919;28;20044;-66
2022/05/10 04:13:39;;;;;;;4.88;3.10;;;31.50;98.10;;;;;;4194902;28;20070;-67
2022/05/10 04:15:43;;;;;;;3.00;2.50;;;31.50;98.00;;;;;;4195166;28;20080;-67
2022/05/10 04:17:52;;;;;;;3.45;2.40;;;31.50;98.10;;;;;;4195203;28;20062;-67
2022/05/10 04:19:56;;;;;;;5.55;2.70;;;31.50;97.90;;;;;;4192530;28;20040;-67
2022/05/10 04:22:01;;;;;;;5.22;2.28;;;31.50;97.90;;;;;;4197391;28;20036;-67
2022/05/10 04:24:10;;;;;;;3.70;2.58;;;31.50;97.70;;;;;;4198719;28;20044;-67
2022/05/10 04:26:15;;;;;;;4.22;2.20;;;31.60;97.60;;;;;;4199253;28;20391;-67
2022/05/10 04:28:20;;;;;;;3.25;2.60;;;31.70;97.70;;;;;;4199052;28;20045;-67
2022/05/10 04:30:27;;;;;;;4.50;2.65;;;31.70;97.50;;;;;;4199232;28;20049;-67
2022/05/10 04:32:34;;;;;;;5.88;2.60;;;31.90;97.30;;;;;;4198972;28;20475;-67
2022/05/10 04:34:38;;;;;;;4.25;2.60;;;32.10;96.90;;;;;;4197139;28;20484;-67
2022/05/10 04:36:49;;;;;;;3.05;2.50;;;32.10;96.80;;;;;;4199265;28;20083;-67
2022/05/10 04:38:54;;;;;;;2.92;2.20;;;32.10;96.80;;;;;;4198829;28;20041;-67
2022/05/10 04:43:22;;;;;;;2.70;2.22;;;32.00;96.60;;;;;;4199160;28;20502;-68
2022/05/10 04:45:27;;;;;;;4.68;2.38;;;32.00;96.60;;;;;;4198647;28;20041;-67
2022/05/10 04:47:32;;;;;;;5.70;2.33;;;31.90;97.10;;;;;;4198748;28;20040;-67
2022/05/10 04:49:41;;;;;;;3.20;2.17;;;32.00;97.00;;;;;;4199097;28;20095;-67
2022/05/10 04:51:46;;;;;;;4.18;2.05;;;32.30;96.70;;;;;;4198760;28;20468;-67
2022/05/10 04:53:52;;;;;;;3.20;2.00;;;32.50;96.70;;;;;;4199241;28;20048;-66
2022/05/10 04:56:00;;;;;;;3.33;2.10;;;32.60;96.30;;;;;;4197116;28;20079;-67
2022/05/10 04:58:05;;;;;;;2.28;1.80;;;32.60;96.10;;;;;;4198991;28;20045;-66
2022/05/10 05:00:11;;;;;;;3.88;1.98;;;32.70;95.90;;;;;;4198559;28;20040;-67
2022/05/10 05:02:20;;;;;;;3.33;1.70;;;32.80;95.50;;;;;;4197148;28;20060;-66
2022/05/10 05:04:25;;;;;;;3.78;1.55;;;32.90;95.40;;;;;;4198712;28;20045;-67
2022/05/10 05:06:29;;;;;;;3.00;1.70;;;33.00;95.50;;;;;;4198344;28;20124;-66
2022/05/10 05:08:38;;;;;;;4.68;2.58;;;32.90;95.10;;;;;;4193538;28;20045;-67
2022/05/10 05:10:43;;;;;;;2.58;1.90;;;32.80;94.60;;;;;;4198103;28;20041;-67
2022/05/10 05:12:47;;;;;;;2.75;1.95;;;32.80;95.00;;;;;;4197887;28;20049;-67
2022/05/10 05:14:56;;;;;;;3.28;1.92;;;32.90;94.90;;;;;;4197712;28;20065;-67
2022/05/10 05:17:00;;;;;;;3.60;1.60;;;32.90;94.90;;;;;;4197774;28;20044;-67
2022/05/10 05:19:05;;;;;;;1.70;1.42;;;32.90;94.70;;;;;;4197939;28;20127;-67
2022/05/10 05:21:12;;;;;;;5.10;1.90;;;32.80;94.80;;;;;;4196853;28;20067;-67
2022/05/10 05:23:18;;;;;;;3.63;2.20;;;32.80;94.80;;;;;;4194744;28;20040;-67
2022/05/10 05:25:23;;;;;;;3.03;1.52;;;33.00;94.60;;;;;;4196727;28;20094;-67
2022/05/10 05:27:32;;;;;;;3.10;1.85;;;33.00;94.80;;;;;;4198296;28;20049;-67
2022/05/10 05:29:36;;;;;;;2.75;1.58;;;32.90;94.70;;;;;;4198359;28;20040;-67
2022/05/10 05:32:02;;;;;;;3.28;1.95;;;33.00;94.70;;;;;;4198162;28;20475;-67
2022/05/10 05:34:08;;;;;;;2.40;1.60;;;33.10;94.40;;;;;;4196607;28;20545;-68
2022/05/10 05:36:13;;;;;;;3.20;1.63;;;33.00;94.40;;;;;;4196541;28;20422;-67
2022/05/10 05:38:20;;;;;;;3.40;1.67;;;32.90;93.90;;;;;;4195688;28;20040;-67
2022/05/10 05:40:27;;;;;;;2.75;1.60;;;32.90;94.20;;;;;;4194951;28;20601;-68
2022/05/10 05:42:32;;;;;;;4.20;2.10;;;33.00;94.20;;;;;;4196554;28;20071;-68
2022/05/10 05:44:36;;;;;;;2.47;1.80;;;33.10;94.50;;;;;;4194625;28;20055;-67
2022/05/10 05:46:42;;;;;;;3.20;1.80;;;33.20;94.40;;;;;;4195143;28;20045;-68
2022/05/10 05:48:48;;;;;;;3.35;1.70;;;33.50;94.20;;;;;;4193561;28;20115;-67
2022/05/10 05:50:52;;;;;;;2.92;1.83;;;33.60;93.90;;;;;;4195262;28;20113;-68
2022/05/10 05:52:59;;;;;;;4.07;1.80;;;33.40;94.20;;;;;;4193637;28;20080;-68
2022/05/10 05:55:04;;;;;;;2.25;1.83;;;33.30;94.40;;;;;;4193878;28;20048;-68
2022/05/10 05:57:10;;;;;;;2.50;1.73;;;33.20;94.30;;;;;;4194552;28;20139;-68
2022/05/10 05:59:17;;;;;;;4.03;1.67;;;33.20;94.10;;;;;;4194989;28;20376;-68
2022/05/10 06:01:23;;;;;;;2.75;1.58;;;33.30;93.70;;;;;;4195367;28;20139;-67
2022/05/10 06:03:28;;;;;;;5.28;2.00;;;33.40;93.70;;;;;;4195136;28;20040;-67
2022/05/10 06:05:36;;;;;;;1.55;1.45;;;33.30;93.80;;;;;;4196244;28;20123;-68
2022/05/10 06:07:40;;;;;;;2.47;1.83;;;33.30;93.70;;;;;;4195956;28;20644;-69
2022/05/10 06:09:45;;;;;;;3.35;1.83;;;33.20;93.90;;;;;;4194881;28;20055;-68
2022/05/10 06:11:54;;;;;;;3.50;1.67;;;33.20;93.80;;;;;;4196560;28;20066;-68
2022/05/10 06:13:59;;;;;;;2.53;1.60;;;33.30;93.60;;;;;;4195684;28;20044;-68
2022/05/10 06:16:09;;;;;;;2.53;1.63;;;33.30;93.80;;;;;;4196951;28;20049;-67
2022/05/10 06:18:17;;;;;;;4.82;1.70;;;33.30;93.70;;;;;;4197495;28;20501;-68
2022/05/10 06:20:22;;;;;;;2.95;1.65;;;33.10;93.90;;;;;;4197282;28;20044;-68
2022/05/10 06:22:27;;;;;;;2.95;1.83;;;33.00;93.90;;;;;;4196213;28;20052;-68
2022/05/10 06:24:33;;;;;;;3.97;1.88;;;32.90;94.00;;;;;;4197085;28;20071;-68
2022/05/10 06:26:41;;;;;;;2.78;1.80;;;32.90;94.20;;;;;;4191347;28;20051;-67
2022/05/10 06:28:45;;;;;;;2.20;1.80;;;32.80;94.20;;;;;;4196805;28;20048;-69
2022/05/10 06:30:56;;;;;;;3.95;1.83;;;32.80;94.40;;;;;;4196572;28;20159;-70
2022/05/10 06:33:00;;;;;;;2.85;1.83;;;32.70;94.50;;;;;;4196712;28;20052;-69
2022/05/10 06:35:05;;;;;;;2.88;1.80;;;32.60;94.50;;;;;;4196868;28;20052;-70
2022/05/10 06:39:32;;;;;;;4.38;2.20;;;32.50;94.60;;;;;;4194461;28;20391;-69
2022/05/10 06:41:36;;;;;;;2.38;1.90;;;32.40;94.70;;;;;;4196471;28;20044;-69
2022/05/10 06:43:44;;;;;;;7.60;2.47;;;32.40;94.10;;;;;;4196904;28;20082;-69
2022/05/10 06:45:57;;;;;;;3.80;1.60;;;32.30;93.80;;;;;;4193004;28;20502;-69
2022/05/10 06:48:03;;;;;;;5.05;1.60;;;32.30;93.70;;;;;;4194891;28;20076;-68
2022/05/10 06:50:10;;;;;;;6.18;2.10;;;32.10;93.40;;;;;;4196213;28;20048;-68
2022/05/10 06:52:18;;;;;;;3.38;1.70;;;32.00;93.60;;;;;;4194754;28;20098;-69
2022/05/10 06:54:22;;;;;;;3.35;2.08;;;32.10;93.40;;;;;;4196876;28;20044;-69
2022/05/10 06:56:29;;;;;;;2.72;1.80;;;32.00;93.30;;;;;;4196550;28;20131;-69
2022/05/10 06:58:34;;;;;;;2.90;1.85;;;31.90;93.30;;;;;;4195651;28;20044;-69
2022/05/10 07:00:40;;;;;;;4.75;2.10;;;31.90;93.70;;;;;;4196132;28;20049;-68
2022/05/10 07:02:45;;;;;;;2.65;2.15;;;32.00;93.70;;;;;;4196675;28;20575;-68
2022/05/10 07:04:49;;;;;;;4.95;1.90;;;32.00;93.70;;;;;;4194790;28;20161;-67
2022/05/10 07:06:53;;;;;;;3.40;1.90;;;31.90;93.60;;;;;;4194844;28;20048;-68
2022/05/10 07:09:02;;;;;;;2.42;1.92;;;31.80;93.50;;;;;;4196191;28;20124;-68
2022/05/10 07:11:11;;;;;;;4.90;1.70;;;31.70;93.70;;;;;;4195672;28;20040;-67
2022/05/10 07:13:20;;;;;;;6.53;2.30;;;31.80;93.60;;;;;;4195810;28;20517;-67
2022/05/10 07:15:30;;;;;;;3.45;2.10;;;31.80;93.60;;;;;;4196265;28;20451;-67
2022/05/10 07:17:34;;;;;;;4.35;1.98;;;31.80;93.70;;;;;;4193384;28;20097;-68
2022/05/10 07:19:39;;;;;;;3.22;1.75;;;31.70;93.50;;;;;;4196036;28;20056;-68
2022/05/10 07:21:47;;;;;;;6.95;2.30;;;31.70;93.60;;;;;;4195972;28;20078;-68
2022/05/10 07:23:52;;;;;;;3.30;1.90;;;31.70;93.40;;;;;;4196183;28;20044;-68
2022/05/10 07:25:56;;;;;;;4.78;2.10;;;31.70;93.50;;;;;;4195847;28;20464;-68
2022/05/10 07:28:08;;;;;;;4.00;1.60;;;31.80;93.40;;;;;;4193133;28;20068;-67
2022/05/10 07:30:14;;;;;;;4.18;1.83;;;31.80;93.70;;;;;;4196544;28;20044;-67
2022/05/10 07:32:20;;;;;;;2.63;1.88;;;31.80;93.60;;;;;;4196071;28;20098;-67
2022/05/10 07:34:27;;;;;;;5.13;2.33;;;31.90;93.60;;;;;;4195973;28;20049;-67
2022/05/10 07:36:35;;;;;;;4.68;2.35;;;31.90;93.60;;;;;;4195647;28;20052;-67
2022/05/10 07:38:40;;;;;;;3.35;2.00;;;31.90;93.70;;;;;;4196178;28;20051;-67
2022/05/10 07:40:47;;;;;;;4.03;2.65;;;32.00;94.00;;;;;;4176831;28;20064;-68
2022/05/10 07:42:52;;;;;;;4.68;2.47;;;32.00;93.90;;;;;;4195285;28;20505;-68
2022/05/10 07:44:56;;;;;;;6.63;2.60;;;32.00;94.30;;;;;;4196002;28;20036;-68
2022/05/10 07:47:04;;;;;;;3.60;2.50;;;31.90;94.40;;;;;;4195767;28;20044;-68
2022/05/10 07:49:09;;;;;;;7.28;2.80;;;31.90;94.50;;;;;;4196161;28;20394;-68
2022/05/10 07:51:13;;;;;;;6.78;2.80;;;31.70;94.10;;;;;;4195979;28;20056;-67
2022/05/10 07:53:22;;;;;;;4.50;2.70;;;31.70;94.60;;;;;;4195985;28;20055;-67
2022/05/10 07:55:27;;;;;;;5.93;3.10;;;31.80;94.60;;;;;;4195943;28;20570;-67
2022/05/10 07:57:31;;;;;;;3.75;2.83;;;31.80;94.60;;;;;;4195814;28;20054;-68
2022/05/10 07:59:39;;;;;;;3.90;2.97;;;31.90;94.60;;;;;;4195006;28;20062;-68
2022/05/10 08:01:43;;;;;;;4.55;2.90;;;32.00;95.00;;;;;;4195858;28;20052;-69
2022/05/10 08:03:48;;;;;;;5.97;3.00;;;32.00;95.20;;;;;;4195645;28;20044;-69
2022/05/10 08:05:56;;;;;;;5.93;3.40;;;32.00;95.20;;;;;;4195937;28;20048;-68
2022/05/10 08:08:01;;;;;;;4.07;3.50;;;32.10;95.00;;;;;;4196049;28;20387;-69
2022/05/10 08:10:07;;;;;;;5.05;3.00;;;32.10;95.00;;;;;;4195989;28;20047;-69
2022/05/10 08:12:14;;;;;;;6.18;3.58;;;32.10;94.90;;;;;;4196281;28;20056;-69
2022/05/10 08:14:18;;;;;;;7.35;3.20;;;32.10;94.80;;;;;;4195255;28;20052;-69
2022/05/10 08:16:36;;;;;;;5.90;4.13;;;32.10;95.10;;;;;;4184318;28;20088;-69
2022/05/10 08:19:00;;;;;;;6.13;3.60;;;32.20;95.00;;;;;;4189581;28;20429;-69
2022/05/10 08:21:04;;;;;;;5.35;3.85;;;32.20;95.00;;;;;;4195873;28;20055;-69
2022/05/10 08:23:11;;;;;;;7.47;3.78;;;32.30;95.00;;;;;;4195333;28;20036;-69
2022/05/10 08:25:17;;;;;;;4.72;3.10;;;32.30;95.00;;;;;;4195248;28;20048;-69
2022/05/10 08:27:21;;;;;;;4.38;2.97;;;32.30;94.70;;;;;;4195928;28;20044;-69
2022/05/10 08:29:26;;;;;;;3.97;2.70;;;32.30;94.50;;;;;;4194683;28;20037;-69
2022/05/10 08:31:34;;;;;;;5.20;3.10;;;32.30;94.60;;;;;;4195673;28;20048;-69
2022/05/10 08:33:41;;;;;;;3.85;2.92;;;32.30;94.40;;;;;;4195499;28;20048;-69
2022/05/10 08:35:48;;;;;;;7.38;3.00;;;32.30;94.40;;;;;;4186056;28;20047;-69
2022/05/10 08:38:00;;;;;;;;;;;32.30;94.70;;;;;;4195927;28;20052;-69
2022/05/10 08:40:06;;;;;;;4.90;3.10;;;32.30;94.60;;;;;;4219351;28;19927;-69
2022/05/10 08:42:23;;;;;;;5.43;3.33;;;32.40;94.70;;;;;;4195670;28;20145;-69
2022/05/10 08:44:35;;;;;;;4.35;2.75;;;32.40;95.00;;;;;;4195562;28;20044;-69
2022/05/10 08:46:47;;;;;;;4.75;3.08;;;32.40;94.90;;;;;;4194575;28;20862;-69
2022/05/10 08:49:00;;;;;;;4.43;2.78;;;32.40;95.00;;;;;;4195898;28;20049;-69
2022/05/10 08:51:07;;;;;;;4.43;2.80;;;32.40;95.10;;;;;;4187602;28;20410;-69
2022/05/10 08:53:14;;;;;;;8.50;3.25;;;32.40;95.10;;;;;;4188715;28;20548;-68
2022/05/10 08:55:22;;;;;;;5.03;2.72;;;32.40;94.90;;;;;;4195295;28;20052;-69
2022/05/10 08:57:49;;;;;;;5.45;2.90;;;32.40;95.00;;;;;;4195467;28;20588;-69
2022/05/10 09:00:07;;;;;;;4.78;3.33;;;32.30;95.00;;;;;;4195780;28;20053;-68
2022/05/10 09:02:15;;;;;;;5.97;3.53;;;32.30;95.10;;;;;;4193961;28;20432;-70
2022/05/10 09:04:51;;;;;;;5.38;3.20;;;32.30;95.10;;;;;;4195784;28;20056;-67
2022/05/10 09:07:02;;;;;;;4.35;2.97;;;32.30;95.20;;;;;;4191074;28;20055;-68
2022/05/10 09:09:25;;;;;;;4.68;2.83;;;32.30;95.40;;;;;;4197522;28;20071;-69
2022/05/10 09:11:53;;;;;;;7.55;5.40;;;32.10;95.70;;;;;;4198162;28;20071;-69
2022/05/10 09:13:58;;;;;;;8.18;5.68;;;31.90;96.10;;;;;;4198381;28;20040;-69
2022/05/10 09:16:05;;;;;;;11.25;7.68;;;31.90;96.30;;;;;;4197404;28;20048;-68
2022/05/10 09:18:29;;;;;;;14.38;8.48;;;31.90;96.40;;;;;;4198384;28;20056;-68
2022/05/10 09:20:33;;;;;;;13.30;8.93;;;31.90;96.20;;;;;;4192330;28;20121;-69
2022/05/10 09:23:09;;;;;;;14.68;9.93;;;31.90;96.20;;;;;;4197901;28;20060;-69
2022/05/10 09:25:34;;;;;;;15.00;10.13;;;31.80;96.70;;;;;;4198125;28;20059;-70
2022/05/10 09:27:39;;;;;;;15.00;9.50;;;31.80;96.70;;;;;;4192321;28;20080;-70
2022/05/10 09:29:48;;;;;;;12.00;7.00;;;31.90;96.90;;;;;;4198130;28;20067;-69
2022/05/10 09:36:31;;;;;;;5.30;4.20;;;31.80;97.70;;;;;;4197834;28;20045;-69
2022/05/10 09:38:46;;;;;;;5.30;4.30;;;31.80;97.70;;;;;;4197525;28;20048;-69
2022/05/10 09:40:51;;;;;;;12.30;4.28;;;31.80;98.20;;;;;;4192597;28;21691;-69
2022/05/10 09:43:25;;;;;;;11.32;4.38;;;31.80;98.20;;;;;;4196977;28;20037;-70
2022/05/10 09:45:33;;;;;;;10.00;5.07;;;31.80;98.20;;;;;;4197414;28;20040;-70
2022/05/10 09:47:38;;;;;;;8.05;4.72;;;31.80;98.10;;;;;;4189310;28;20040;-70
2022/05/10 09:49:43;;;;;;;8.07;4.88;;;31.70;98.10;;;;;;4194398;28;20048;-70
2022/05/10 09:51:50;;;;;;;7.72;5.10;;;31.70;98.30;;;;;;4195446;28;20086;-69
2022/05/10 09:53:55;;;;;;;10.40;5.55;;;31.70;98.30;;;;;;4179985;28;20040;-69
2022/05/10 09:56:06;;;;;;;7.45;5.13;;;31.70;98.40;;;;;;4197365;28;20136;-70
2022/05/10 09:58:21;;;;;;;11.13;5.03;;;31.70;98.60;;;;;;4197461;28;20059;-68
2022/05/10 10:00:39;;;;;;;11.23;5.65;;;31.60;98.70;;;;;;4194411;28;20064;-69
2022/05/10 10:02:44;;;;;;;8.77;5.63;;;31.60;98.70;;;;;;4196830;28;20083;-69
2022/05/10 10:04:53;;;;;;;8.43;5.45;;;31.60;98.50;;;;;;4197178;28;20049;-69
2022/05/10 10:07:14;;;;;;;11.35;5.65;;;31.60;98.60;;;;;;4196771;28;20041;-69
2022/05/10 10:09:31;;;;;;;9.55;5.28;;;31.60;98.80;;;;;;4197581;28;20408;-69
2022/05/10 10:11:39;;;;;;;7.47;5.15;;;31.60;98.90;;;;;;4196722;28;20040;-69
2022/05/10 10:13:44;;;;;;;11.88;5.47;;;31.50;98.90;;;;;;4196548;28;20058;-71
2022/05/10 10:15:48;;;;;;;11.30;5.13;;;31.50;98.80;;;;;;4195596;28;20053;-70
2022/05/10 10:17:58;;;;;;;14.30;5.50;;;31.50;98.80;;;;;;4197416;28;20036;-70
2022/05/10 10:20:12;;;;;;;11.55;5.25;;;31.50;98.80;;;;;;4196318;28;20060;-68
2022/05/10 10:22:28;;;;;;;10.18;5.30;;;31.50;98.70;;;;;;4196236;28;20053;-67
2022/05/10 10:24:57;;;;;;;10.77;5.75;;;31.50;98.70;;;;;;4197239;28;20140;-67
2022/05/10 10:27:06;;;;;;;17.95;12.15;;;31.50;98.80;;;;;;4196955;28;20389;-67
2022/05/10 10:29:35;;;;;;;13.30;9.68;;;31.40;98.80;;;;;;4196350;28;20434;-67
2022/05/10 10:31:52;;;;;;;9.30;6.13;;;31.40;98.60;;;;;;4196969;28;20056;-68
2022/05/10 10:34:21;;;;;;;14.85;5.97;;;31.20;98.70;;;;;;4197218;28;20101;-66
2022/05/10 10:36:30;;;;;;;11.98;5.72;;;31.20;98.70;;;;;;4196853;28;20052;-68
2022/05/10 10:38:52;;;;;;;11.80;5.80;;;31.20;98.60;;;;;;4197181;28;20047;-68
2022/05/10 10:41:05;;;;;;;10.68;6.15;;;31.20;98.60;;;;;;4196952;28;20079;-69
2022/05/10 10:43:50;;;;;;;14.27;5.70;;;31.30;98.80;;;;;;4196724;28;20131;-68
2022/05/10 10:46:29;;;;;;;12.13;6.18;;;31.30;98.80;;;;;;4190995;28;20123;-67
2022/05/10 10:48:58;;;;;;;14.57;6.72;;;31.30;98.80;;;;;;4196784;28;20045;-68
2022/05/10 10:51:09;;;;;;;11.10;6.80;;;31.20;98.70;;;;;;4196792;28;20040;-69
2022/05/10 10:53:13;;;;;;;9.38;6.05;;;31.20;98.70;;;;;;4195629;28;20052;-69
2022/05/10 10:55:19;;;;;;;13.20;6.45;;;31.20;98.90;;;;;;4196847;28;20049;-68
2022/05/10 10:57:49;;;;;;;10.15;6.18;;;31.00;99.20;;;;;;4196833;28;20410;-68
2022/05/10 11:00:10;;;;;;;13.88;6.55;;;31.00;99.70;;;;;;4196603;28;20105;-68
2022/05/10 11:02:46;;;;;;;9.00;5.95;;;30.80;99.90;;;;;;4191448;28;20056;-68
2022/05/10 11:05:11;;;;;;;15.85;6.32;;;30.80;99.90;;;;;;4196857;28;20532;-68
2022/05/10 11:07:40;;;;;;;10.23;7.07;;;30.80;99.90;;;;;;4189716;28;20499;-68
2022/05/10 11:10:13;;;;;;;9.73;5.07;;;30.90;99.90;;;;;;4196685;28;20040;-68
2022/05/10 11:12:49;;;;;;;10.57;5.43;;;30.90;99.90;;;;;;4195281;28;20055;-69
2022/05/10 11:15:16;;;;;;;9.05;5.40;;;30.80;99.90;;;;;;4196026;28;20045;-68
2022/05/10 11:17:48;;;;;;;6.60;4.93;;;30.80;99.90;;;;;;4196391;28;20150;-69
2022/05/10 11:20:24;;;;;;;9.07;5.47;;;30.90;99.90;;;;;;4195920;28;20055;-68
2022/05/10 11:22:57;;;;;;;5.25;4.00;;;30.80;99.90;;;;;;4195213;28;20123;-68
2022/05/10 11:25:26;;;;;;;8.25;4.70;;;30.80;99.90;;;;;;4193954;28;20040;-68
2022/05/10 11:27:55;;;;;;;5.35;4.13;;;30.80;99.90;;;;;;4194811;28;20037;-68
2022/05/10 11:30:20;;;;;;;9.75;4.60;;;30.80;99.90;;;;;;4193423;28;20051;-68
2022/05/10 11:33:06;;;;;;;8.60;5.00;;;30.80;99.90;;;;;;4191146;28;20040;-68
2022/05/10 11:35:38;;;;;;;7.90;4.78;;;30.70;99.90;;;;;;4195322;28;20553;-67